• Join FlightAware (Why Join?)
  • Login
  • US Flag 
12:46PM EDT


 

Airport Tracker/Info


-or-


 

Live Flight TrackerFlight Track Log ✈ ASQ5025 ✈ 25-Apr-2013 ✈ KLGA - KBTV

Flight Track Log - Related Links

Times and Time Zones

All times are in EDT time to prevent confusion due to time zone crossing. See the ASQ5025 flight status page for this flight to view local times or setup timezone preferences in your user account.

Time Position Orientation Groundspeed Altitude Reporting Facility
EDT Latitude Longitude Course Direction KTS MPH feet Rate Location/Type
09:36AM 40.7833 -73.8667 37° Northeast 150 173 1,100  Level New York TRACON
09:37AM 40.8167 -73.8333 37° Northeast 193 222 3,200 2,520 Climbing New York TRACON
09:38AM 40.8833 -73.7833 30° Northeast 249 287 5,900 2,400 Climbing New York TRACON
09:39AM 40.9333 -73.7167 45° Northeast 290 334 8,100 2,160 Climbing New York TRACON
09:40AM 41.0669 -73.5881 36° Northeast 343 395 12,000 1,920 Climbing Boston Center
09:41AM 41.1614 -73.5236 27° Northeast 358 412 13,500 1,740 Climbing Boston Center
09:42AM 41.2622 -73.4425 31° Northeast 406 467 15,500 1,740 Climbing Boston Center
09:43AM 41.3631 -73.3500 35° Northeast 430 495 17,000 1,440 Climbing Boston Center
09:44AM 41.4764 -73.2519 33° Northeast 463 533 18,400 1,440 Climbing Boston Center
09:45AM 41.5769 -73.1617 34° Northeast 481 554 19,900 1,440 Climbing Boston Center
09:46AM 41.7064 -73.1242 12° North 474 545 21,300 1,380 Climbing Boston Center
09:47AM 41.8375 -73.1450 353° North 465 535 22,700 1,380 Climbing Boston Center
09:48AM 41.9750 -73.1661 353° North 470 541 24,100 1,800 Climbing Boston Center
09:49AM 42.1186 -73.1931 352° North 484 557 26,300 1,440 Climbing Boston Center
09:50AM 42.2478 -73.2169 352° North 474 545 27,000 300 Climbing Boston Center
09:51AM 42.3644 -73.2269 356° North 462 532 27,000  Level Boston Center
09:52AM 42.4872 -73.2508 352° North 457 526 27,000  Level Boston Center
09:53AM 42.6183 -73.2808 350° North 445 512 27,000  Level Boston Center
09:54AM 42.7411 -73.3022 353° North 440 506 27,000  Level Boston Center
09:55AM 42.8347 -73.3178 353° North 440 506 27,000  Level Boston Center
09:56AM 42.9761 -73.3425 353° North 435 501 27,000  Level Boston Center
09:57AM 43.1014 -73.3331 North 435 501 27,000 -1,020 Level Boston Center
09:58AM 43.2264 -73.3178 North 441 507 25,000 -1,500 Descending Boston Center
09:59AM 43.3494 -73.3053 North 441 507 24,000 -540 Descending Boston Center
10:00AM 43.4642 -73.2867 North 427 491 24,000  Level Boston Center
10:01AM 43.5728 -73.2739 North 411 473 24,000 -180 Level Boston Center
10:02AM 43.6583 -73.2636 North 397 457 23,700 -2,100 Descending Boston Center
10:03AM 43.7792 -73.2453 North 389 448 19,900 -3,900 Descending Boston Center
10:04AM 43.9003 -73.2294 North 396 456 16,000 -3,720 Descending Boston Center
10:05AM 44.0003 -73.2192 North 376 433 12,500 -2,760 Descending Boston Center
10:06AM 44.0858 -73.1917 13° North 333 383 10,500 -2,220 Descending Boston Center
10:07AM 44.1428 -73.1083 46° Northeast 292 336 8,100 -2,040 Descending Boston Center
10:08AM 44.2075 -73.0772 19° North 254 292 6,500 -1,620 Descending Boston Center
10:09AM 44.2658 -73.0664 North 220 253 4,900 -1,500 Descending Boston Center
10:10AM 44.3222 -73.0553 North 214 246 3,600 -1,140 Descending Boston Center
10:11AM 44.3783 -73.0500 North 209 241 2,700 -900 Descending Boston Center
10:12AM 44.4158 -73.0650 344° North 164 189 1,900 -780 Descending Boston Center
10:13AM 44.4367 -73.1000 310° West 128 147 1,200 -660 Descending Boston Center
10:14AM 44.4592 -73.1353 312° West 123 142 600 -480 Descending Boston Center
10:15AM 44.4839 -73.1761 310° West 123 142 300 -300 Descending Boston Center
10:20AM 44.4719 -73.1533 125° Southeast  Level Estimated